This is the latest recevied weather packets stored in our database for station/object KE0YJJ-14. If no packets are shown the sender has not sent any weather packets the latest 10 day(s).
| Time | Temp. | Humidity | Pressure | Rain* | Wind** | Luminosity | Snow |
|---|---|---|---|---|---|---|---|
| 1777395554 | 10° C | 62% | - | 0 mm | - | - | - |
| 1777395250 | 10.56° C | 58% | - | 0 mm | - | - | - |
| 1777394948 | 11.11° C | 55% | - | 0 mm | - | - | - |
| 1777394643 | 10.56° C | 52% | - | 0 mm | - | - | - |
| 1777394340 | 10° C | 61% | - | 0 mm | - | - | - |
| 1777394036 | 10° C | 60% | - | 0 mm | - | - | - |
| 1777393731 | 10° C | 55% | - | 0 mm | - | - | - |
| 1777393426 | 9.44° C | 59% | - | 0 mm | - | - | - |
| 1777393123 | 10.56° C | 58% | - | 0 mm | - | - | - |
| 1777392819 | 10° C | 60% | - | 0 mm | - | - | - |
| 1777392515 | 10° C | 58% | - | 0 mm | - | - | - |
| 1777392211 | 10° C | 59% | - | 0 mm | - | - | - |
| 1777391905 | 9.44° C | 58% | - | 0 mm | - | - | - |
| 1777391601 | 9.44° C | 59% | - | 0 mm | - | - | - |
| 1777391297 | 8.89° C | 62% | - | 0 mm | - | - | - |
| 1777390994 | 10° C | 60% | - | 0 mm | - | - | - |
| 1777390690 | 9.44° C | 60% | - | 0 mm | - | - | - |
| 1777390387 | 8.33° C | 66% | - | 0 mm | - | - | - |
| 1777390083 | 8.89° C | 62% | - | 0 mm | - | - | - |
| 1777389780 | 8.89° C | 60% | - | 0 mm | - | - | - |
| 1777389476 | 8.89° C | 60% | - | 0 mm | - | - | - |
| 1777389174 | 8.89° C | 60% | - | 0 mm | - | - | - |
| 1777388871 | 8.89° C | 61% | - | 0 mm | - | - | - |
| 1777388568 | 8.33° C | 62% | - | 0 mm | - | - | - |
| 1777388264 | 8.33° C | 64% | - | 0 mm | - | - | - |
* Rain latest hour (hover to see other rain measurements)
** Current wind speed in m/s (hover to see current wind gust speed)